createdAt,value
2017-10-21T00:02:13.122Z,11.00
2017-10-21T00:04:40.582Z,11.10
2017-10-21T00:07:07.792Z,11.10
2017-10-21T00:09:33.970Z,11.10
2017-10-21T00:12:00.199Z,11.10
2017-10-21T00:14:26.712Z,11.10
2017-10-21T00:16:52.941Z,11.10
2017-10-21T00:19:19.160Z,11.10
2017-10-21T00:21:45.357Z,11.00
2017-10-21T00:24:11.562Z,11.10
2017-10-21T00:26:38.276Z,11.10
2017-10-21T00:29:04.458Z,11.10
2017-10-21T00:31:35.262Z,11.20
2017-10-21T00:34:02.206Z,11.10
2017-10-21T00:36:28.455Z,11.00
2017-10-21T00:38:54.709Z,11.10
2017-10-21T00:41:21.742Z,11.10
2017-10-21T00:43:48.320Z,11.00
2017-10-21T00:46:14.552Z,10.90
2017-10-21T00:48:40.749Z,10.90
2017-10-21T00:51:06.962Z,10.90
2017-10-21T00:53:33.142Z,10.90
2017-10-21T00:55:59.393Z,11.00
2017-10-21T00:58:25.996Z,11.10
2017-10-21T01:00:56.859Z,11.10
2017-10-21T01:03:23.089Z,11.10
2017-10-21T01:05:49.311Z,11.10
2017-10-21T01:08:16.362Z,11.10
2017-10-21T01:10:42.640Z,11.00
2017-10-21T01:13:09.307Z,10.80
2017-10-21T01:15:35.579Z,10.80
2017-10-21T01:18:02.241Z,10.90
2017-10-21T01:20:28.475Z,11.00
2017-10-21T01:22:55.145Z,11.00
2017-10-21T01:25:21.382Z,11.10
2017-10-21T01:27:48.348Z,11.10
2017-10-21T01:30:14.595Z,11.10
2017-10-21T01:32:40.863Z,11.10
2017-10-21T01:35:07.468Z,11.20
2017-10-21T01:37:33.705Z,11.20
2017-10-21T01:40:02.299Z,11.10
2017-10-21T01:42:28.543Z,11.20
2017-10-21T01:44:55.392Z,11.20
2017-10-21T01:47:23.415Z,11.20
2017-10-21T01:49:49.576Z,11.20
2017-10-21T01:52:16.934Z,11.20
2017-10-21T01:54:44.192Z,11.20
2017-10-21T01:57:12.415Z,11.20
2017-10-21T01:59:38.646Z,11.10
2017-10-21T02:02:05.775Z,11.10
2017-10-21T02:04:34.075Z,11.10
2017-10-21T02:07:01.722Z,11.20
2017-10-21T02:09:28.107Z,11.10
2017-10-21T02:11:55.008Z,10.90
2017-10-21T02:14:22.886Z,10.90
2017-10-21T02:16:49.879Z,11.00
2017-10-21T02:19:17.332Z,10.90
2017-10-21T02:21:44.885Z,10.90
2017-10-21T02:24:11.502Z,10.80
2017-10-21T02:26:38.662Z,10.80
2017-10-21T02:29:04.935Z,10.80
2017-10-21T02:31:31.163Z,10.70
2017-10-21T02:33:57.703Z,10.70
2017-10-21T02:36:24.638Z,10.70
2017-10-21T02:38:51.266Z,10.60
2017-10-21T02:41:17.504Z,10.60
2017-10-21T02:43:44.086Z,10.50
2017-10-21T02:46:10.299Z,10.50
2017-10-21T02:48:36.878Z,10.60
2017-10-21T02:51:03.114Z,10.60
2017-10-21T02:53:29.320Z,10.50
2017-10-21T02:55:56.524Z,10.60
2017-10-21T02:58:22.742Z,10.60
2017-10-21T03:00:49.323Z,10.60
2017-10-21T03:03:15.900Z,10.60
2017-10-21T03:05:42.999Z,10.70
2017-10-21T03:08:09.703Z,10.70
2017-10-21T03:10:35.962Z,10.60
2017-10-21T03:13:02.500Z,10.70
2017-10-21T03:15:29.136Z,10.70
2017-10-21T03:17:55.368Z,10.60
2017-10-21T03:20:21.620Z,10.60
2017-10-21T03:22:47.835Z,10.60
2017-10-21T03:25:14.332Z,10.60
2017-10-21T03:27:41.186Z,10.60
2017-10-21T03:30:07.450Z,10.80
2017-10-21T03:32:33.703Z,10.80
2017-10-21T03:34:59.930Z,10.80
2017-10-21T03:37:26.194Z,10.80
2017-10-21T03:39:52.449Z,10.70
2017-10-21T03:42:21.804Z,10.70
2017-10-21T03:44:48.158Z,10.70
2017-10-21T03:47:14.665Z,10.60
2017-10-21T03:49:41.031Z,10.60
2017-10-21T03:52:07.223Z,10.70
2017-10-21T03:54:33.416Z,10.80
2017-10-21T03:57:01.260Z,10.90
2017-10-21T03:59:27.449Z,11.00
2017-10-21T04:01:53.664Z,11.00
2017-10-21T04:04:19.874Z,11.00
2017-10-21T04:06:46.103Z,10.90
2017-10-21T04:09:13.062Z,10.90
2017-10-21T04:11:39.284Z,10.90
2017-10-21T04:14:06.320Z,10.90
2017-10-21T04:16:32.711Z,10.90
2017-10-21T04:18:58.933Z,11.00
2017-10-21T04:21:25.272Z,11.10
2017-10-21T04:23:51.499Z,11.10
2017-10-21T04:26:17.744Z,11.20
2017-10-21T04:28:44.010Z,11.20
2017-10-21T04:31:11.294Z,11.20
2017-10-21T04:33:37.510Z,11.20
2017-10-21T04:36:04.122Z,11.10
2017-10-21T04:38:30.294Z,11.10
2017-10-21T04:40:57.950Z,11.10
2017-10-21T04:43:24.170Z,11.10
2017-10-21T04:45:50.355Z,11.10
2017-10-21T04:48:19.074Z,11.00
2017-10-21T04:50:45.998Z,11.00
2017-10-21T04:53:13.150Z,11.00
2017-10-21T04:55:39.287Z,11.00
2017-10-21T04:58:05.466Z,10.90
2017-10-21T05:00:31.666Z,10.90
2017-10-21T05:02:57.943Z,10.80
2017-10-21T05:05:28.363Z,10.80
2017-10-21T05:07:54.719Z,10.70
2017-10-21T05:10:20.906Z,10.70
2017-10-21T05:12:47.154Z,10.70
2017-10-21T05:15:14.130Z,10.60
2017-10-21T05:17:41.054Z,10.60
2017-10-21T05:20:07.522Z,10.60
2017-10-21T05:22:34.596Z,10.70
2017-10-21T05:25:01.582Z,10.90
2017-10-21T05:27:27.803Z,10.90
2017-10-21T05:29:54.058Z,10.90
2017-10-21T05:32:20.283Z,10.90
2017-10-21T05:34:46.517Z,10.90
2017-10-21T05:37:12.706Z,10.90
2017-10-21T05:39:38.877Z,10.90
2017-10-21T05:42:05.115Z,10.80
2017-10-21T05:44:31.327Z,10.80
2017-10-21T05:46:57.543Z,10.80
2017-10-21T05:49:23.770Z,11.00
2017-10-21T05:51:50.512Z,11.00
2017-10-21T05:54:17.663Z,11.00
2017-10-21T05:56:43.870Z,11.00
2017-10-21T05:59:10.122Z,11.10
2017-10-21T06:01:36.329Z,11.00
2017-10-21T06:04:02.571Z,11.00
2017-10-21T06:06:29.595Z,11.00
2017-10-21T06:08:55.812Z,11.00
2017-10-21T06:11:22.051Z,11.00
2017-10-21T06:13:48.281Z,11.00
2017-10-21T06:16:14.534Z,11.00
2017-10-21T06:18:40.739Z,11.00
2017-10-21T06:21:06.961Z,11.00
2017-10-21T06:23:33.158Z,11.10
2017-10-21T06:25:59.393Z,11.20
2017-10-21T06:28:28.254Z,11.30
2017-10-21T06:30:54.710Z,11.40
2017-10-21T06:33:21.724Z,11.40
2017-10-21T06:35:48.198Z,11.50
2017-10-21T06:38:14.973Z,11.50
2017-10-21T06:40:41.186Z,11.50
2017-10-21T06:43:07.481Z,11.60
2017-10-21T06:45:33.759Z,11.60
2017-10-21T06:48:02.229Z,11.70
2017-10-21T06:50:29.573Z,11.60
2017-10-21T06:52:56.654Z,11.60
2017-10-21T06:55:23.835Z,11.70
2017-10-21T06:57:51.802Z,11.80
2017-10-21T07:00:18.762Z,11.90
2017-10-21T07:02:44.951Z,11.90
2017-10-21T07:05:11.176Z,11.90
2017-10-21T07:07:39.430Z,12.00
2017-10-21T07:10:08.905Z,12.10
2017-10-21T07:12:35.223Z,12.10
2017-10-21T07:15:08.313Z,12.10
2017-10-21T07:17:37.153Z,12.20
2017-10-21T07:20:04.430Z,12.20
2017-10-21T07:22:30.667Z,12.10
2017-10-21T07:24:57.571Z,12.10
2017-10-21T07:27:23.865Z,12.10
2017-10-21T07:29:50.084Z,12.10
2017-10-21T07:32:17.351Z,12.10
2017-10-21T07:34:46.617Z,12.10
2017-10-21T07:37:15.202Z,12.10
2017-10-21T07:39:41.794Z,12.10
2017-10-21T07:42:08.546Z,12.10
2017-10-21T07:44:34.757Z,12.10
2017-10-21T07:47:00.972Z,12.10
2017-10-21T07:49:27.214Z,12.10
2017-10-21T07:51:53.408Z,12.10
2017-10-21T07:54:19.618Z,12.20
2017-10-21T07:56:45.854Z,12.30
2017-10-21T07:59:12.086Z,12.30
2017-10-21T08:01:39.154Z,12.40
2017-10-21T08:04:05.394Z,12.50
2017-10-21T08:06:31.601Z,12.50
2017-10-21T08:08:57.813Z,12.50
2017-10-21T08:11:24.030Z,12.60
2017-10-21T08:13:50.307Z,12.60
2017-10-21T08:16:16.518Z,12.70
2017-10-21T08:18:42.722Z,12.80
2017-10-21T08:21:09.764Z,13.00
2017-10-21T08:23:36.816Z,13.10
2017-10-21T08:26:03.044Z,13.10
2017-10-21T08:28:30.033Z,13.20
2017-10-21T08:30:56.597Z,13.30
2017-10-21T08:33:23.128Z,13.40
2017-10-21T08:35:49.342Z,13.50
2017-10-21T08:38:15.603Z,13.60
2017-10-21T08:40:41.884Z,13.60
2017-10-21T08:43:08.308Z,13.70
2017-10-21T08:45:34.888Z,13.70
2017-10-21T08:48:01.084Z,13.80
2017-10-21T08:50:27.435Z,13.80
2017-10-21T08:52:53.682Z,13.70
2017-10-21T08:55:19.969Z,13.80
2017-10-21T08:57:46.216Z,13.90
2017-10-21T09:00:12.419Z,14.00
2017-10-21T09:02:39.248Z,13.90
2017-10-21T09:05:05.504Z,13.90
2017-10-21T09:07:31.835Z,13.80
2017-10-21T09:09:58.466Z,13.80
2017-10-21T09:12:25.001Z,13.80
2017-10-21T09:14:51.204Z,14.00
2017-10-21T09:17:17.428Z,14.00
2017-10-21T09:19:43.678Z,14.70
2017-10-21T09:22:09.912Z,15.10
2017-10-21T09:24:36.167Z,15.50
2017-10-21T09:27:03.404Z,15.80
2017-10-21T09:29:29.612Z,15.80
2017-10-21T09:31:55.867Z,15.80
2017-10-21T09:34:22.111Z,15.70
2017-10-21T09:36:48.340Z,15.70
2017-10-21T09:39:14.571Z,15.80
2017-10-21T09:41:41.627Z,15.50
2017-10-21T09:44:07.857Z,15.30
2017-10-21T09:46:34.059Z,15.20
2017-10-21T09:49:00.286Z,15.20
2017-10-21T09:51:26.712Z,15.10
2017-10-21T09:53:52.946Z,15.10
2017-10-21T09:56:19.240Z,15.00
2017-10-21T09:58:45.787Z,14.90
2017-10-21T10:01:15.641Z,14.80
2017-10-21T10:03:46.247Z,14.60
2017-10-21T10:08:47.881Z,14.40
2017-10-21T10:11:15.476Z,14.40
2017-10-21T10:13:44.581Z,14.20
2017-10-21T10:16:11.761Z,14.20
2017-10-21T10:18:39.456Z,14.20
2017-10-21T10:21:05.692Z,14.20
2017-10-21T10:23:32.763Z,14.20
2017-10-21T10:26:06.159Z,14.30
2017-10-21T10:28:32.409Z,14.40
2017-10-21T10:30:59.649Z,14.50
2017-10-21T10:33:25.938Z,14.50
2017-10-21T10:35:52.480Z,14.50
2017-10-21T10:38:19.025Z,14.60
2017-10-21T10:40:45.240Z,14.60
2017-10-21T10:43:11.436Z,14.80
2017-10-21T10:45:37.681Z,15.00
2017-10-21T10:48:03.910Z,15.00
2017-10-21T10:50:30.163Z,14.90
2017-10-21T10:52:56.366Z,14.90
2017-10-21T10:55:22.585Z,14.80
2017-10-21T10:57:48.789Z,14.80
2017-10-21T11:00:15.002Z,14.70
2017-10-21T11:02:41.981Z,14.60
2017-10-21T11:05:08.572Z,14.60
2017-10-21T11:07:34.981Z,14.60
2017-10-21T11:10:11.161Z,14.70
2017-10-21T11:12:38.191Z,14.80
2017-10-21T11:15:06.109Z,14.80
2017-10-21T11:17:32.517Z,14.80
2017-10-21T11:19:59.001Z,14.80
2017-10-21T11:22:29.587Z,14.90
2017-10-21T11:24:56.889Z,15.00
2017-10-21T11:27:23.793Z,15.20
2017-10-21T11:29:50.291Z,15.30
2017-10-21T11:32:17.600Z,15.30
2017-10-21T11:34:43.981Z,15.20
2017-10-21T11:37:11.195Z,15.10
2017-10-21T11:39:37.513Z,15.10
2017-10-21T11:42:05.407Z,15.00
2017-10-21T11:44:32.293Z,15.00
2017-10-21T11:46:59.674Z,15.00
2017-10-21T11:49:26.017Z,15.10
2017-10-21T11:51:52.582Z,15.10
2017-10-21T11:54:19.229Z,15.20
2017-10-21T11:56:45.868Z,15.40
2017-10-21T11:59:12.815Z,15.50
2017-10-21T12:01:39.049Z,15.50
2017-10-21T12:04:06.217Z,15.60
2017-10-21T12:06:42.648Z,15.70
2017-10-21T12:09:09.831Z,15.80
2017-10-21T12:11:36.700Z,16.00
2017-10-21T12:14:02.946Z,16.70
2017-10-21T12:16:29.141Z,17.30
2017-10-21T12:18:55.384Z,17.70
2017-10-21T12:21:21.793Z,18.50
2017-10-21T12:23:49.905Z,18.90
2017-10-21T12:26:18.615Z,18.50
2017-10-21T12:28:45.173Z,18.20
2017-10-21T12:31:13.409Z,17.90
2017-10-21T12:33:48.314Z,17.60
2017-10-21T12:36:34.491Z,17.10
2017-10-21T12:39:02.594Z,16.80
2017-10-21T12:41:29.551Z,16.70
2017-10-21T12:43:56.928Z,16.60
2017-10-21T12:46:24.474Z,16.50
2017-10-21T12:48:52.515Z,16.50
2017-10-21T12:51:33.692Z,16.50
2017-10-21T12:54:02.544Z,16.40
2017-10-21T12:56:32.505Z,16.30
2017-10-21T12:59:04.867Z,16.20
2017-10-21T13:01:31.872Z,16.10
2017-10-21T13:03:58.945Z,16.00
2017-10-21T13:06:26.339Z,16.10
2017-10-21T13:08:53.433Z,16.20
2017-10-21T13:11:20.363Z,16.50
2017-10-21T13:13:47.787Z,16.80
2017-10-21T13:16:14.945Z,17.00
2017-10-21T13:18:42.574Z,17.00
2017-10-21T13:21:09.978Z,17.10
2017-10-21T13:23:37.803Z,17.30
2017-10-21T13:26:04.935Z,17.20
2017-10-21T13:28:31.938Z,17.10
2017-10-21T13:30:59.156Z,17.10
2017-10-21T13:33:26.371Z,17.30
2017-10-21T13:35:53.370Z,17.50
2017-10-21T13:38:20.989Z,17.70
2017-10-21T13:40:48.590Z,17.80
2017-10-21T13:43:15.593Z,18.20
2017-10-21T13:45:42.474Z,18.70
2017-10-21T13:48:09.503Z,18.70
2017-10-21T13:50:36.255Z,18.40
2017-10-21T13:53:03.670Z,18.10
2017-10-21T13:55:31.583Z,17.80
2017-10-21T13:57:58.654Z,17.60
2017-10-21T14:00:26.016Z,17.40
2017-10-21T14:02:54.153Z,17.30
2017-10-21T14:05:23.644Z,17.20
2017-10-21T14:07:50.895Z,17.20
2017-10-21T14:10:18.658Z,17.20
2017-10-21T14:22:26.241Z,17.00
2017-10-21T14:26:53.019Z,17.00
2017-10-21T14:29:25.189Z,17.10
2017-10-21T14:31:51.581Z,17.40
2017-10-21T14:34:18.975Z,17.60
2017-10-21T14:36:45.235Z,17.60
2017-10-21T14:39:11.757Z,17.70
2017-10-21T14:41:38.351Z,17.60
2017-10-21T14:44:05.820Z,17.50
2017-10-21T14:46:32.164Z,17.30
2017-10-21T14:48:58.782Z,17.30
2017-10-21T14:51:26.546Z,17.00
2017-10-21T14:53:53.462Z,16.90
2017-10-21T14:56:19.805Z,16.80
2017-10-21T14:58:46.475Z,16.80
2017-10-21T15:01:12.859Z,16.70
2017-10-21T15:03:39.231Z,16.60
2017-10-21T15:06:05.968Z,16.50
2017-10-21T15:08:32.373Z,16.50
2017-10-21T15:10:59.265Z,16.50
2017-10-21T15:13:26.480Z,16.50
2017-10-21T15:15:53.914Z,16.50
2017-10-21T15:18:20.195Z,16.50
2017-10-21T15:20:47.488Z,16.60
2017-10-21T15:23:13.724Z,16.70
2017-10-21T15:25:40.304Z,16.60
2017-10-21T15:28:06.744Z,16.50
2017-10-21T15:30:36.606Z,16.50
2017-10-21T15:33:05.455Z,16.50
2017-10-21T15:35:31.769Z,16.50
2017-10-21T15:37:58.096Z,16.40
2017-10-21T15:40:24.802Z,16.40
2017-10-21T15:42:51.090Z,16.30
2017-10-21T15:45:22.098Z,16.30
2017-10-21T15:47:48.294Z,16.20
2017-10-21T15:50:14.771Z,16.20
2017-10-21T15:52:40.985Z,16.20
2017-10-21T15:55:08.704Z,16.20
2017-10-21T15:57:42.822Z,16.20
2017-10-21T16:00:09.367Z,16.20
2017-10-21T16:02:38.201Z,16.20
2017-10-21T16:05:06.317Z,16.10
2017-10-21T16:07:32.769Z,16.10
2017-10-21T16:09:59.163Z,15.90
2017-10-21T16:12:25.388Z,15.90
2017-10-21T16:14:51.644Z,15.80
2017-10-21T16:17:18.866Z,15.80
2017-10-21T16:19:45.092Z,15.80
2017-10-21T16:22:11.339Z,15.80
2017-10-21T16:24:38.827Z,15.70
2017-10-21T16:27:05.041Z,15.70
2017-10-21T16:29:31.984Z,15.70
2017-10-21T16:31:58.290Z,15.70
2017-10-21T16:34:24.534Z,15.70
2017-10-21T16:36:50.936Z,15.70
2017-10-21T16:39:18.402Z,15.70
2017-10-21T16:41:49.818Z,15.70
2017-10-21T16:44:23.821Z,15.70
2017-10-21T16:46:52.023Z,15.70
2017-10-21T16:49:18.690Z,15.70
2017-10-21T16:51:45.805Z,15.80
2017-10-21T16:54:12.475Z,15.80
2017-10-21T16:56:38.738Z,15.80
2017-10-21T16:59:05.706Z,15.80
2017-10-21T17:01:33.064Z,15.80
2017-10-21T17:04:00.202Z,15.90
2017-10-21T17:06:26.761Z,15.90
2017-10-21T17:08:53.046Z,16.00
2017-10-21T17:11:20.159Z,16.10
2017-10-21T17:13:46.416Z,16.10
2017-10-21T17:16:16.058Z,16.10
2017-10-21T17:18:42.373Z,16.10
2017-10-21T17:21:08.773Z,16.00
2017-10-21T17:23:35.068Z,15.90
2017-10-21T17:26:01.537Z,15.80
2017-10-21T17:28:27.823Z,15.80
2017-10-21T17:30:53.995Z,15.60
2017-10-21T17:33:21.200Z,15.60
2017-10-21T17:35:47.449Z,15.60
2017-10-21T17:38:13.717Z,15.50
2017-10-21T17:40:40.091Z,15.40
2017-10-21T17:43:06.359Z,15.40
2017-10-21T17:45:34.329Z,15.30
2017-10-21T17:48:00.596Z,15.30
2017-10-21T17:50:27.001Z,15.30
2017-10-21T17:52:53.198Z,15.10
2017-10-21T17:55:20.084Z,15.10
2017-10-21T17:57:46.255Z,14.90
2017-10-21T18:00:12.551Z,14.90
2017-10-21T18:02:38.753Z,14.90
2017-10-21T18:05:04.959Z,14.80
2017-10-21T18:07:46.223Z,14.80
2017-10-21T18:10:12.432Z,14.80
2017-10-21T18:12:38.714Z,14.60
2017-10-21T18:15:07.978Z,14.50
2017-10-21T18:17:34.580Z,14.50
2017-10-21T18:20:00.920Z,14.60
2017-10-21T18:22:27.118Z,14.50
2017-10-21T18:24:53.556Z,14.50
2017-10-21T18:27:19.751Z,14.40
2017-10-21T18:29:46.937Z,14.20
2017-10-21T18:32:13.274Z,14.10
2017-10-21T18:34:39.529Z,14.10
2017-10-21T18:37:05.795Z,14.10
2017-10-21T18:39:34.281Z,14.00
2017-10-21T18:42:00.494Z,14.00
2017-10-21T18:44:26.733Z,13.90
2017-10-21T18:46:53.366Z,13.90
2017-10-21T18:49:19.556Z,13.90
2017-10-21T18:51:46.229Z,13.90
2017-10-21T18:54:13.199Z,13.80
2017-10-21T18:56:40.873Z,13.80
2017-10-21T18:59:07.116Z,13.80
2017-10-21T19:01:33.703Z,13.70
2017-10-21T19:04:00.121Z,13.60
2017-10-21T19:06:26.880Z,13.70
2017-10-21T19:18:34.129Z,13.70
2017-10-21T19:21:02.531Z,13.90
2017-10-21T19:23:28.878Z,13.80
2017-10-21T19:25:55.445Z,13.80
2017-10-21T19:28:21.966Z,13.80
2017-10-21T19:30:48.424Z,13.80
2017-10-21T19:33:14.842Z,13.70
2017-10-21T19:35:41.114Z,13.60
2017-10-21T19:38:07.363Z,13.60
2017-10-21T19:40:33.690Z,13.60
2017-10-21T19:43:00.140Z,13.60
2017-10-21T19:45:30.307Z,13.50
2017-10-21T19:47:59.461Z,13.60
2017-10-21T19:50:26.037Z,13.50
2017-10-21T19:52:53.780Z,13.60
2017-10-21T19:55:21.123Z,13.50
2017-10-21T19:57:48.500Z,13.80
2017-10-21T20:00:15.953Z,13.50
2017-10-21T20:02:43.210Z,13.40
2017-10-21T20:05:10.301Z,13.40
2017-10-21T20:07:37.337Z,13.40
2017-10-21T20:10:04.502Z,13.40
2017-10-21T20:12:31.360Z,13.40
2017-10-21T20:14:58.837Z,13.40
2017-10-21T20:17:25.738Z,13.40
2017-10-21T20:19:53.177Z,13.30
2017-10-21T20:32:00.097Z,13.20
2017-10-21T20:34:28.647Z,13.20
2017-10-21T20:36:54.886Z,13.20
2017-10-21T20:39:22.370Z,13.20
2017-10-21T20:42:07.741Z,13.10
2017-10-21T20:44:34.870Z,13.10
2017-10-21T20:47:04.404Z,13.00
2017-10-21T20:49:31.474Z,13.00
2017-10-21T20:51:59.095Z,13.10
2017-10-21T20:54:25.285Z,13.10
2017-10-21T20:56:51.564Z,13.10
2017-10-21T20:59:18.133Z,13.10
2017-10-21T21:01:44.831Z,13.10
2017-10-21T21:04:11.799Z,13.10
2017-10-21T21:06:39.049Z,13.00
2017-10-21T21:09:05.287Z,12.90
2017-10-21T21:11:32.416Z,12.90
2017-10-21T21:13:58.725Z,12.90
2017-10-21T21:16:25.356Z,12.90
2017-10-21T21:18:51.666Z,12.80
2017-10-21T21:21:18.358Z,12.80
2017-10-21T21:36:35.699Z,13.00
2017-10-21T21:39:06.536Z,12.90
2017-10-21T21:41:33.034Z,12.90
2017-10-21T21:43:59.456Z,12.90
2017-10-21T21:46:25.698Z,12.90
2017-10-21T21:48:51.912Z,12.90
2017-10-21T21:51:18.121Z,12.90
2017-10-21T21:53:45.083Z,12.90
2017-10-21T21:56:12.089Z,12.80
2017-10-21T21:58:38.292Z,12.80
2017-10-21T22:01:05.262Z,12.70
2017-10-21T22:03:32.330Z,12.80
2017-10-21T22:05:59.979Z,12.90
2017-10-21T22:08:26.663Z,12.90
2017-10-21T22:10:53.228Z,12.80
2017-10-21T22:13:20.188Z,12.80
2017-10-21T22:15:47.200Z,12.80
2017-10-21T22:18:13.746Z,12.80
2017-10-21T22:20:41.005Z,12.80
2017-10-21T22:23:08.362Z,12.80
2017-10-21T22:25:38.275Z,12.90
2017-10-21T22:28:05.360Z,12.80
2017-10-21T22:30:32.215Z,12.80
2017-10-21T22:32:58.966Z,12.80
2017-10-21T22:35:25.157Z,12.80
2017-10-21T22:37:52.357Z,12.80
2017-10-21T22:40:18.569Z,12.70
2017-10-21T22:42:44.730Z,12.70
2017-10-21T22:45:11.544Z,12.60
2017-10-21T22:47:39.512Z,12.60
2017-10-21T22:50:05.748Z,12.60
2017-10-21T22:52:32.011Z,12.60
2017-10-21T22:54:58.206Z,12.50
2017-10-21T22:57:24.801Z,12.50
2017-10-21T22:59:51.729Z,12.50
2017-10-21T23:02:17.956Z,12.50
2017-10-21T23:04:44.157Z,12.50
2017-10-21T23:07:11.771Z,12.40
2017-10-21T23:09:38.846Z,12.40
2017-10-21T23:12:06.284Z,12.30
2017-10-21T23:14:32.474Z,12.30
2017-10-21T23:16:58.670Z,12.30
2017-10-21T23:19:25.309Z,12.30
2017-10-21T23:21:52.221Z,12.30
2017-10-21T23:24:18.670Z,12.40
2017-10-21T23:26:44.850Z,12.40
2017-10-21T23:29:11.175Z,12.40
2017-10-21T23:31:37.511Z,12.40
2017-10-21T23:34:03.811Z,12.40
2017-10-21T23:36:30.186Z,12.30
2017-10-21T23:38:56.398Z,12.30
2017-10-21T23:41:22.596Z,12.30
2017-10-21T23:43:48.890Z,12.30
2017-10-21T23:46:30.856Z,12.30
2017-10-21T23:48:57.636Z,12.30
2017-10-21T23:51:26.052Z,12.20
2017-10-21T23:53:52.295Z,12.20
2017-10-21T23:56:18.462Z,12.20
2017-10-21T23:58:45.042Z,12.20
